Time;durP1;ratioP1;P1;durP2;ratioP2;P2;SDS_P1;SDS_P2;PMS_P1;PMS_P2;Temp;Humidity;BMP_temperature;BMP_pressure;BME280_temperature;BME280_humidity;BME280_pressure;Samples;Min_cycle;Max_cycle;Signal;HPM_P1;HPM_P2
2022/11/21 00:01:00;;;;;;;13.23;6.60;;;;;;;;;;4974416;28;20031;-76
2022/11/21 00:03:26;;;;;;;17.55;6.40;;;;;;;;;;4976696;28;20074;-77
2022/11/21 00:05:51;;;;;;;25.10;6.65;;;;;;;;;;4975145;28;20069;-76
2022/11/21 00:08:19;;;;;;;16.50;6.00;;;;;;;;;;4975251;28;20137;-76
2022/11/21 00:10:45;;;;;;;15.77;6.13;;;;;;;;;;4977642;28;20034;-76
2022/11/21 00:13:13;;;;;;;21.10;6.40;;;;;;;;;;4977033;28;20046;-77
2022/11/21 00:15:38;;;;;;;20.13;5.80;;;;;;;;;;4981008;28;20356;-77
2022/11/21 00:18:04;;;;;;;17.27;5.38;;;;;;;;;;4979250;28;20050;-77
2022/11/21 00:20:30;;;;;;;18.77;6.07;;;;;;;;;;4983769;28;20051;-77
2022/11/21 00:22:55;;;;;;;17.98;6.38;;;;;;;;;;4982454;28;20027;-77
2022/11/21 00:25:20;;;;;;;18.42;5.82;;;;;;;;;;4977839;28;20041;-77
2022/11/21 00:27:46;;;;;;;20.42;6.50;;;;;;;;;;4983654;28;20553;-77
2022/11/21 00:30:11;;;;;;;13.38;4.93;;;;;;;;;;4979299;28;20060;-77
2022/11/21 00:32:37;;;;;;;24.17;5.20;;;;;;;;;;4985628;28;20038;-77
2022/11/21 00:35:03;;;;;;;17.35;5.60;;;;;;;;;;4978569;28;20101;-77
2022/11/21 00:37:30;;;;;;;17.83;5.32;;;;;;;;;;4977806;28;20063;-77
2022/11/21 00:39:56;;;;;;;24.83;5.95;;;;;;;;;;4978578;28;20058;-77
2022/11/21 00:42:21;;;;;;;13.90;5.22;;;;;;;;;;4981976;28;20081;-77
2022/11/21 00:44:47;;;;;;;42.17;6.85;;;;;;;;;;4984380;28;20396;-77
2022/11/21 00:47:12;;;;;;;14.55;5.80;;;;;;;;;;4983106;28;20097;-77
2022/11/21 00:49:37;;;;;;;20.00;5.60;;;;;;;;;;4985604;28;20484;-77
2022/11/21 00:52:03;;;;;;;23.73;5.10;;;;;;;;;;5010098;28;20033;-77
2022/11/21 00:54:28;;;;;;;12.55;5.10;;;;;;;;;;4981930;28;20066;-76
2022/11/21 00:56:53;;;;;;;18.58;5.88;;;;;;;;;;4977424;28;20047;-76
2022/11/21 00:59:19;;;;;;;14.40;4.85;;;;;;;;;;4978176;28;20035;-77
2022/11/21 01:01:44;;;;;;;16.38;4.60;;;;;;;;;;4979519;28;20062;-77
2022/11/21 01:04:09;;;;;;;15.75;4.40;;;;;;;;;;4981231;28;20121;-77
2022/11/21 01:06:36;;;;;;;12.75;5.03;;;;;;;;;;4977175;28;20105;-77
2022/11/21 01:09:02;;;;;;;23.48;6.47;;;;;;;;;;5009385;28;20038;-77
2022/11/21 01:11:28;;;;;;;23.58;6.38;;;;;;;;;;4975859;28;20390;-77
2022/11/21 01:13:54;;;;;;;29.52;6.50;;;;;;;;;;4984933;28;20474;-77
2022/11/21 01:16:21;;;;;;;16.25;5.68;;;;;;;;;;4983151;28;20066;-77
2022/11/21 01:18:47;;;;;;;38.63;6.85;;;;;;;;;;4977002;28;20073;-76
2022/11/21 01:21:18;;;;;;;26.88;6.85;;;;;;;;;;4977770;28;20384;-77
2022/11/21 01:23:44;;;;;;;14.60;5.70;;;;;;;;;;4981896;28;20039;-77
2022/11/21 01:26:12;;;;;;;23.80;6.35;;;;;;;;;;4976757;28;20038;-77
2022/11/21 01:28:37;;;;;;;18.90;5.13;;;;;;;;;;4977863;28;20027;-76
2022/11/21 01:31:08;;;;;;;17.08;6.72;;;;;;;;;;4979367;28;20035;-77
2022/11/21 01:33:34;;;;;;;22.17;6.35;;;;;;;;;;4980173;28;20038;-77
2022/11/21 01:36:11;;;;;;;20.25;5.88;;;;;;;;;;4985166;28;20041;-77
2022/11/21 01:38:37;;;;;;;17.45;5.97;;;;;;;;;;5007619;28;20051;-77
2022/11/21 01:41:03;;;;;;;21.38;6.30;;;;;;;;;;4975149;28;20395;-77
2022/11/21 01:43:28;;;;;;;28.02;5.80;;;;;;;;;;4986721;28;20041;-78
2022/11/21 01:46:03;;;;;;;18.30;5.70;;;;;;;;;;4983581;28;20038;-77
2022/11/21 01:48:33;;;;;;;18.20;5.35;;;;;;;;;;4979661;28;20038;-77
2022/11/21 01:51:21;;;;;;;19.95;5.47;;;;;;;;;;4982480;28;20042;-77
2022/11/21 01:53:54;;;;;;;28.90;5.78;;;;;;;;;;4975816;28;20050;-77
2022/11/21 01:56:20;;;;;;;28.38;5.53;;;;;;;;;;4975064;28;20050;-77
2022/11/21 01:58:46;;;;;;;12.05;4.15;;;;;;;;;;5008739;28;20077;-76
2022/11/21 02:01:12;;;;;;;17.88;4.35;;;;;;;;;;4976095;28;20973;-77
2022/11/21 02:03:38;;;;;;;16.35;5.18;;;;;;;;;;5010350;28;20042;-77
2022/11/21 02:06:05;;;;;;;22.30;4.63;;;;;;;;;;4975627;28;20027;-77
2022/11/21 02:08:30;;;;;;;10.20;4.47;;;;;;;;;;5007330;28;20027;-77
2022/11/21 02:11:11;;;;;;;15.63;5.13;;;;;;;;;;4976848;28;20121;-77
2022/11/21 02:13:36;;;;;;;14.65;5.60;;;;;;;;;;5009232;28;20478;-77
2022/11/21 02:16:02;;;;;;;17.75;5.72;;;;;;;;;;4976676;28;20066;-77
2022/11/21 02:18:27;;;;;;;13.88;4.95;;;;;;;;;;4975724;28;20093;-76
2022/11/21 02:21:02;;;;;;;20.63;5.38;;;;;;;;;;4984922;28;20464;-76
2022/11/21 02:24:05;;;;;;;23.73;5.65;;;;;;;;;;4973467;28;20549;-77
2022/11/21 02:26:31;;;;;;;18.70;6.55;;;;;;;;;;4986917;28;20047;-77
2022/11/21 02:28:57;;;;;;;16.42;5.93;;;;;;;;;;4979307;28;20382;-77
2022/11/21 02:31:22;;;;;;;20.52;6.18;;;;;;;;;;4980217;28;20039;-76
2022/11/21 02:33:48;;;;;;;16.23;5.68;;;;;;;;;;4981130;28;20077;-78
2022/11/21 02:36:42;;;;;;;20.05;6.07;;;;;;;;;;4975436;28;20049;-77
2022/11/21 02:39:13;;;;;;;18.52;5.00;;;;;;;;;;5011261;28;20037;-77
2022/11/21 02:41:48;;;;;;;11.90;4.55;;;;;;;;;;4974817;28;20126;-76
2022/11/21 02:44:23;;;;;;;19.20;4.75;;;;;;;;;;4976032;28;20486;-77
2022/11/21 02:46:50;;;;;;;13.00;3.97;;;;;;;;;;5011069;28;20075;-77
2022/11/21 02:49:23;;;;;;;9.63;3.90;;;;;;;;;;4975153;28;20046;-77
2022/11/21 02:51:48;;;;;;;13.00;4.07;;;;;;;;;;4977213;28;20039;-76
2022/11/21 02:54:13;;;;;;;15.65;4.38;;;;;;;;;;4976304;28;20050;-77
2022/11/21 02:56:39;;;;;;;11.82;4.00;;;;;;;;;;4975296;28;20067;-77
2022/11/21 02:59:04;;;;;;;15.45;4.03;;;;;;;;;;4983854;28;20426;-77
2022/11/21 03:01:30;;;;;;;20.52;4.80;;;;;;;;;;4977795;28;20046;-77
2022/11/21 03:03:55;;;;;;;13.50;4.65;;;;;;;;;;4976051;28;20037;-76
2022/11/21 03:06:20;;;;;;;28.25;7.47;;;;;;;;;;4974797;28;20093;-77
2022/11/21 03:08:46;;;;;;;17.65;4.95;;;;;;;;;;4975877;28;20049;-77
2022/11/21 03:11:11;;;;;;;14.75;5.45;;;;;;;;;;4974902;28;20475;-77
2022/11/21 03:13:36;;;;;;;16.25;5.13;;;;;;;;;;4976319;28;20061;-76
2022/11/21 03:16:02;;;;;;;14.93;3.97;;;;;;;;;;4985140;28;20026;-77
2022/11/21 03:18:27;;;;;;;20.52;4.45;;;;;;;;;;4975597;28;20125;-77
2022/11/21 03:20:53;;;;;;;12.20;4.40;;;;;;;;;;4977550;28;20050;-76
2022/11/21 03:23:18;;;;;;;7.93;3.60;;;;;;;;;;4974674;28;20026;-77
2022/11/21 03:25:43;;;;;;;13.95;4.13;;;;;;;;;;4975861;28;20111;-77
2022/11/21 03:28:09;;;;;;;15.25;4.60;;;;;;;;;;4970835;28;20501;-77
2022/11/21 03:30:34;;;;;;;14.50;4.32;;;;;;;;;;4977051;28;20034;-77
2022/11/21 03:33:00;;;;;;;12.70;3.95;;;;;;;;;;4975728;28;20129;-77
2022/11/21 03:35:25;;;;;;;12.73;4.15;;;;;;;;;;4979695;28;20054;-77
2022/11/21 03:37:51;;;;;;;14.85;3.90;;;;;;;;;;4975474;28;20034;-77
2022/11/21 03:40:16;;;;;;;37.47;4.97;;;;;;;;;;4975051;28;20034;-77
2022/11/21 03:42:42;;;;;;;22.35;4.53;;;;;;;;;;4975132;28;20398;-77
2022/11/21 03:45:08;;;;;;;14.77;3.72;;;;;;;;;;4976706;28;20376;-77
2022/11/21 03:47:33;;;;;;;7.80;3.70;;;;;;;;;;4980957;28;20050;-77
2022/11/21 03:49:59;;;;;;;13.63;3.83;;;;;;;;;;5006857;28;20039;-77
2022/11/21 03:52:24;;;;;;;12.05;3.17;;;;;;;;;;4976372;28;20038;-77
2022/11/21 03:54:49;;;;;;;10.23;3.92;;;;;;;;;;4975365;28;20043;-77
2022/11/21 03:57:15;;;;;;;14.73;4.03;;;;;;;;;;5005191;28;20446;-77
2022/11/21 03:59:40;;;;;;;63.35;6.18;;;;;;;;;;4979368;28;20038;-77
2022/11/21 04:02:05;;;;;;;96.88;8.13;;;;;;;;;;4980692;28;20069;-76
2022/11/21 04:04:31;;;;;;;8.95;3.63;;;;;;;;;;4974742;28;20364;-76
2022/11/21 04:06:56;;;;;;;20.02;4.22;;;;;;;;;;4973808;28;20019;-77
2022/11/21 04:09:21;;;;;;;11.52;3.90;;;;;;;;;;4976457;28;20038;-76
2022/11/21 04:11:47;;;;;;;7.57;3.70;;;;;;;;;;4974340;28;20530;-77
2022/11/21 04:14:12;;;;;;;10.13;3.90;;;;;;;;;;4975299;28;20070;-77
2022/11/21 04:16:38;;;;;;;25.48;4.30;;;;;;;;;;4976253;28;20114;-77
2022/11/21 04:19:03;;;;;;;78.55;5.90;;;;;;;;;;4976674;28;20494;-77
2022/11/21 04:21:28;;;;;;;17.73;4.63;;;;;;;;;;4977448;28;20042;-77
2022/11/21 04:23:54;;;;;;;23.73;4.25;;;;;;;;;;4976151;28;20124;-77
2022/11/21 04:26:19;;;;;;;12.57;3.90;;;;;;;;;;4973935;28;20050;-77
2022/11/21 04:28:46;;;;;;;9.13;3.22;;;;;;;;;;4976184;28;20023;-77
2022/11/21 04:31:11;;;;;;;12.48;3.80;;;;;;;;;;4980840;28;20378;-77
2022/11/21 04:33:40;;;;;;;12.23;3.20;;;;;;;;;;4973746;28;20042;-77
2022/11/21 04:36:06;;;;;;;10.00;3.55;;;;;;;;;;4972427;28;20491;-77
2022/11/21 04:38:32;;;;;;;7.53;2.92;;;;;;;;;;4976186;28;20030;-76
2022/11/21 04:40:57;;;;;;;10.38;3.85;;;;;;;;;;4979962;28;20381;-77
2022/11/21 04:43:22;;;;;;;13.88;3.78;;;;;;;;;;4974129;28;20041;-77
2022/11/21 04:45:48;;;;;;;14.95;3.90;;;;;;;;;;4974841;28;20406;-77
2022/11/21 04:48:13;;;;;;;12.15;3.72;;;;;;;;;;4974713;28;20161;-76
2022/11/21 04:50:38;;;;;;;23.48;4.32;;;;;;;;;;4976655;28;20049;-77
2022/11/21 04:53:04;;;;;;;21.70;3.10;;;;;;;;;;4977564;28;20029;-77
2022/11/21 04:55:31;;;;;;;5.38;2.80;;;;;;;;;;4977585;28;20474;-77
2022/11/21 04:57:57;;;;;;;9.40;3.67;;;;;;;;;;4976153;28;20031;-76
2022/11/21 05:00:22;;;;;;;12.02;2.97;;;;;;;;;;4986077;28;20050;-77
2022/11/21 05:02:48;;;;;;;8.68;3.08;;;;;;;;;;4977202;28;20058;-77
2022/11/21 05:05:13;;;;;;;13.70;3.17;;;;;;;;;;4987897;28;20390;-76
2022/11/21 05:07:38;;;;;;;14.07;3.88;;;;;;;;;;4976682;28;20173;-77
2022/11/21 05:10:05;;;;;;;15.88;3.53;;;;;;;;;;4978848;28;20042;-77
2022/11/21 05:15:15;;;;;;;12.27;3.15;;;;;;;;;;4981454;28;20042;-76
2022/11/21 05:17:40;;;;;;;14.00;3.55;;;;;;;;;;4981499;28;20399;-76
2022/11/21 05:20:06;;;;;;;8.93;2.83;;;;;;;;;;4983642;28;20489;-77
2022/11/21 05:22:31;;;;;;;11.02;2.75;;;;;;;;;;4978619;28;20027;-76
2022/11/21 05:24:57;;;;;;;13.13;3.92;;;;;;;;;;4978028;28;20391;-76
2022/11/21 05:27:22;;;;;;;14.85;4.13;;;;;;;;;;4982626;28;20034;-76
2022/11/21 05:29:47;;;;;;;8.80;3.80;;;;;;;;;;4977801;28;20039;-77
2022/11/21 05:32:13;;;;;;;10.98;3.33;;;;;;;;;;4984815;28;20520;-77
2022/11/21 05:34:38;;;;;;;16.77;3.28;;;;;;;;;;4977882;28;20411;-77
2022/11/21 05:37:04;;;;;;;8.93;3.10;;;;;;;;;;4976470;28;20042;-77
2022/11/21 05:39:29;;;;;;;6.88;2.78;;;;;;;;;;4984072;28;20034;-77
2022/11/21 05:41:55;;;;;;;9.00;2.75;;;;;;;;;;4981498;28;20046;-77
2022/11/21 05:44:20;;;;;;;11.85;3.55;;;;;;;;;;4982017;28;20116;-76
2022/11/21 05:46:45;;;;;;;7.15;2.92;;;;;;;;;;4981741;28;20053;-77
2022/11/21 05:49:11;;;;;;;8.40;3.03;;;;;;;;;;4977613;28;20423;-77
2022/11/21 05:51:37;;;;;;;20.73;2.95;;;;;;;;;;4976358;28;20039;-77
2022/11/21 05:54:02;;;;;;;11.35;3.00;;;;;;;;;;4981444;28;20046;-76
2022/11/21 05:56:28;;;;;;;8.93;3.05;;;;;;;;;;4975886;28;20031;-76
2022/11/21 05:58:53;;;;;;;12.18;3.13;;;;;;;;;;4978427;28;20026;-76
2022/11/21 06:03:25;;;;;;;10.88;2.83;;;;;;;;;;4978117;28;20410;-76
2022/11/21 06:04:04;;;;;;;6.63;2.90;;;;;;;;;;4976800;28;20037;-76
2022/11/21 06:06:30;;;;;;;15.48;3.53;;;;;;;;;;4975731;28;20411;-77
2022/11/21 06:08:55;;;;;;;13.15;3.47;;;;;;;;;;4977041;28;20034;-77
2022/11/21 06:11:21;;;;;;;12.02;2.80;;;;;;;;;;4976147;28;20039;-76
2022/11/21 06:13:46;;;;;;;10.52;2.95;;;;;;;;;;4980058;28;20057;-76
2022/11/21 06:16:13;;;;;;;10.48;2.83;;;;;;;;;;4979986;28;20121;-76
2022/11/21 06:18:44;;;;;;;10.70;3.03;;;;;;;;;;4975766;28;20034;-76
2022/11/21 06:21:20;;;;;;;10.48;3.00;;;;;;;;;;4974998;28;20486;-76
2022/11/21 06:23:46;;;;;;;8.20;3.03;;;;;;;;;;4980162;28;20061;-77
2022/11/21 06:26:16;;;;;;;11.80;3.00;;;;;;;;;;4975854;28;20073;-77
2022/11/21 06:28:43;;;;;;;8.95;3.58;;;;;;;;;;4983519;28;20077;-77
2022/11/21 06:31:13;;;;;;;8.75;2.70;;;;;;;;;;4981334;28;20155;-77
2022/11/21 06:33:39;;;;;;;8.00;2.88;;;;;;;;;;4977260;28;20126;-76
2022/11/21 06:36:07;;;;;;;9.85;2.95;;;;;;;;;;4975234;28;20453;-77
2022/11/21 06:38:33;;;;;;;13.88;2.97;;;;;;;;;;5005781;28;20394;-76
2022/11/21 06:41:06;;;;;;;14.27;3.00;;;;;;;;;;4974547;28;20039;-76
2022/11/21 06:43:32;;;;;;;6.07;2.65;;;;;;;;;;4983695;28;20352;-76
2022/11/21 06:45:57;;;;;;;8.88;2.53;;;;;;;;;;4982206;28;20169;-76
2022/11/21 06:48:23;;;;;;;15.77;3.13;;;;;;;;;;4976412;28;20133;-76
2022/11/21 06:50:49;;;;;;;14.27;3.08;;;;;;;;;;4980700;28;20096;-77
2022/11/21 06:53:14;;;;;;;15.93;2.90;;;;;;;;;;4981489;28;20505;-77
2022/11/21 06:55:39;;;;;;;10.75;3.08;;;;;;;;;;4979493;28;20047;-77
2022/11/21 06:58:05;;;;;;;11.20;3.03;;;;;;;;;;4976940;28;20038;-77
2022/11/21 07:00:30;;;;;;;8.63;2.40;;;;;;;;;;4979301;28;20035;-77
2022/11/21 07:03:00;;;;;;;8.10;2.38;;;;;;;;;;4976824;28;20038;-77
2022/11/21 07:05:26;;;;;;;16.17;3.05;;;;;;;;;;5007265;28;20034;-76
2022/11/21 07:07:57;;;;;;;33.17;3.33;;;;;;;;;;4975109;28;20043;-77
2022/11/21 07:10:22;;;;;;;22.52;2.63;;;;;;;;;;4986478;28;20073;-76
2022/11/21 07:15:31;;;;;;;5.40;2.22;;;;;;;;;;4977880;28;20046;-77
2022/11/21 07:17:57;;;;;;;17.17;2.08;;;;;;;;;;4974139;28;20435;-77
2022/11/21 07:20:23;;;;;;;19.83;2.47;;;;;;;;;;4976010;28;20117;-77
2022/11/21 07:22:53;;;;;;;12.82;2.25;;;;;;;;;;4981993;28;20143;-77
2022/11/21 07:25:18;;;;;;;26.38;2.88;;;;;;;;;;4974368;28;20051;-76
2022/11/21 07:27:43;;;;;;;23.83;4.00;;;;;;;;;;4975460;28;20471;-77
2022/11/21 07:30:09;;;;;;;25.40;3.30;;;;;;;;;;4976011;28;20082;-76
2022/11/21 07:32:35;;;;;;;17.67;2.78;;;;;;;;;;4977330;28;20403;-77
2022/11/21 07:35:00;;;;;;;43.75;3.95;;;;;;;;;;4975548;28;20042;-77
2022/11/21 07:37:26;;;;;;;22.17;2.33;;;;;;;;;;4974578;28;20537;-76
2022/11/21 07:39:51;;;;;;;25.90;3.28;;;;;;;;;;4976307;28;20146;-77
2022/11/21 07:42:17;;;;;;;29.92;3.83;;;;;;;;;;4977726;28;20870;-76
2022/11/21 07:44:42;;;;;;;37.35;3.40;;;;;;;;;;4975460;28;20031;-76
2022/11/21 07:47:07;;;;;;;30.70;3.20;;;;;;;;;;4976126;28;20046;-77
2022/11/21 07:49:33;;;;;;;21.10;3.03;;;;;;;;;;4982286;28;20161;-77
2022/11/21 07:51:58;;;;;;;32.15;3.30;;;;;;;;;;4976395;28;20026;-77
2022/11/21 07:54:24;;;;;;;21.60;3.45;;;;;;;;;;4982560;28;20437;-77
2022/11/21 07:56:49;;;;;;;28.10;3.15;;;;;;;;;;4977706;28;20039;-78
2022/11/21 07:59:14;;;;;;;29.40;3.30;;;;;;;;;;4974380;28;20082;-78
2022/11/21 08:01:40;;;;;;;25.15;2.50;;;;;;;;;;4973461;28;20046;-78
2022/11/21 08:04:05;;;;;;;26.67;3.00;;;;;;;;;;4974208;28;20042;-78
2022/11/21 08:06:30;;;;;;;17.75;2.67;;;;;;;;;;4972734;28;20463;-78
2022/11/21 08:08:56;;;;;;;31.52;3.30;;;;;;;;;;4974276;28;20031;-77
2022/11/21 08:11:21;;;;;;;26.75;2.45;;;;;;;;;;4972396;28;20051;-77
2022/11/21 08:13:47;;;;;;;35.10;4.43;;;;;;;;;;4975873;28;20042;-77
2022/11/21 08:16:12;;;;;;;24.15;3.50;;;;;;;;;;4973012;28;20039;-78
2022/11/21 08:18:37;;;;;;;30.08;3.63;;;;;;;;;;4975486;28;20046;-78
2022/11/21 08:21:03;;;;;;;20.90;3.53;;;;;;;;;;4976205;28;20035;-77
2022/11/21 08:23:29;;;;;;;32.45;3.38;;;;;;;;;;4974078;28;20035;-77
2022/11/21 08:25:55;;;;;;;35.10;2.75;;;;;;;;;;4973744;28;20479;-78
2022/11/21 08:28:20;;;;;;;28.02;3.00;;;;;;;;;;4973962;28;20035;-77
2022/11/21 08:30:46;;;;;;;29.88;2.67;;;;;;;;;;4977324;28;20042;-77
2022/11/21 08:33:11;;;;;;;31.83;4.13;;;;;;;;;;4976455;28;20085;-77
2022/11/21 08:35:37;;;;;;;41.70;3.28;;;;;;;;;;4977450;28;20062;-77
2022/11/21 08:38:03;;;;;;;38.25;3.70;;;;;;;;;;4977403;28;20074;-78
2022/11/21 08:40:30;;;;;;;30.67;2.90;;;;;;;;;;4974279;28;20498;-78
2022/11/21 08:43:00;;;;;;;34.33;3.75;;;;;;;;;;4975932;28;20057;-78
2022/11/21 08:45:25;;;;;;;35.88;3.88;;;;;;;;;;4973154;28;20131;-76
2022/11/21 08:47:52;;;;;;;35.38;3.28;;;;;;;;;;4975444;28;20145;-77
2022/11/21 08:50:17;;;;;;;34.90;2.72;;;;;;;;;;4973174;28;20034;-77
2022/11/21 08:52:42;;;;;;;0.10;0.10;;;;;;;;;;4974699;28;20027;-76
2022/11/21 08:55:08;;;;;;;0.10;0.10;;;;;;;;;;4974297;28;20487;-76
2022/11/21 08:57:40;;;;;;;0.10;0.10;;;;;;;;;;5006139;28;20050;-77
2022/11/21 09:00:07;;;;;;;0.10;0.10;;;;;;;;;;5005546;28;20046;-76
2022/11/21 09:02:33;;;;;;;0.85;0.85;;;;;;;;;;4972696;28;20043;-76
2022/11/21 09:04:58;;;;;;;0.10;0.10;;;;;;;;;;4965468;28;20035;-76
2022/11/21 09:07:24;;;;;;;0.10;0.10;;;;;;;;;;4969172;28;20065;-75
2022/11/21 09:09:49;;;;;;;0.10;0.10;;;;;;;;;;4971652;28;20039;-76
2022/11/21 09:12:15;;;;;;;0.13;0.13;;;;;;;;;;5005918;28;20031;-76
2022/11/21 09:20:08;;;;;;;0.10;0.10;;;;;;;;;;4984436;28;20510;-76
2022/11/21 09:22:34;;;;;;;0.20;0.20;;;;;;;;;;4985001;28;20031;-76
2022/11/21 09:24:59;;;;;;;0.20;0.20;;;;;;;;;;4958418;28;20554;-76
2022/11/21 09:27:25;;;;;;;0.20;0.20;;;;;;;;;;4956013;28;20038;-76
2022/11/21 09:29:50;;;;;;;0.17;0.17;;;;;;;;;;4972820;28;20050;-76
2022/11/21 09:32:15;;;;;;;0.20;0.20;;;;;;;;;;4972896;28;20478;-77
2022/11/21 09:34:41;;;;;;;0.15;0.15;;;;;;;;;;4975977;28;20054;-76
2022/11/21 09:37:06;;;;;;;0.20;0.20;;;;;;;;;;4967580;28;20050;-76
2022/11/21 09:39:33;;;;;;;0.20;0.20;;;;;;;;;;4971903;28;20053;-76
2022/11/21 09:42:19;;;;;;;0.32;0.32;;;;;;;;;;4972394;28;20048;-76
2022/11/21 09:45:06;;;;;;;0.20;0.20;;;;;;;;;;4955107;28;20069;-76
2022/11/21 09:47:42;;;;;;;5.63;2.47;;;;;;;;;;4962000;28;20054;-76
2022/11/21 09:50:10;;;;;;;0.10;0.10;;;;;;;;;;4994577;28;20047;-76
2022/11/21 09:52:44;;;;;;;0.57;0.57;;;;;;;;;;4971690;28;20551;-76
2022/11/21 09:55:23;;;;;;;0.73;0.40;;;;;;;;;;4971337;28;20039;-76
2022/11/21 09:57:49;;;;;;;24.00;2.83;;;;;;;;;;4996089;28;20130;-76
2022/11/21 10:00:19;;;;;;;31.45;2.78;;;;;;;;;;5005822;28;20048;-77
2022/11/21 10:02:45;;;;;;;25.60;2.30;;;;;;;;;;4972367;28;20070;-76
2022/11/21 10:05:14;;;;;;;33.05;2.60;;;;;;;;;;4971224;28;20089;-76
2022/11/21 10:07:39;;;;;;;21.92;2.25;;;;;;;;;;4972217;28;20474;-76
2022/11/21 10:10:16;;;;;;;24.85;2.50;;;;;;;;;;4971657;28;20035;-75
2022/11/21 10:13:09;;;;;;;31.67;3.05;;;;;;;;;;4972091;28;20041;-75
2022/11/21 10:15:44;;;;;;;14.57;2.20;;;;;;;;;;4961446;28;20037;-75
2022/11/21 10:18:40;;;;;;;20.27;2.17;;;;;;;;;;4971193;28;20043;-76
2022/11/21 10:21:14;;;;;;;28.42;2.53;;;;;;;;;;4971864;28;20045;-76
2022/11/21 10:24:07;;;;;;;21.45;2.50;;;;;;;;;;4966306;28;20047;-75
2022/11/21 10:26:57;;;;;;;23.25;3.10;;;;;;;;;;4958291;28;20065;-76
2022/11/21 10:29:38;;;;;;;29.15;2.60;;;;;;;;;;4959999;28;20042;-77
2022/11/21 10:32:21;;;;;;;17.67;2.35;;;;;;;;;;5000190;28;20056;-75
2022/11/21 10:34:48;;;;;;;24.55;2.30;;;;;;;;;;5001125;28;20042;-75
2022/11/21 10:37:27;;;;;;;15.88;2.08;;;;;;;;;;4970021;28;20041;-75
2022/11/21 10:39:53;;;;;;;16.13;2.65;;;;;;;;;;4971616;28;20125;-76
2022/11/21 10:42:25;;;;;;;11.60;2.20;;;;;;;;;;4968094;28;20072;-75
2022/11/21 10:47:36;;;;;;;24.73;3.13;;;;;;;;;;4969903;28;20061;-75
2022/11/21 10:50:07;;;;;;;23.25;2.55;;;;;;;;;;4979872;28;20411;-75
2022/11/21 10:52:44;;;;;;;11.70;1.75;;;;;;;;;;4968605;28;20042;-74
2022/11/21 10:55:12;;;;;;;12.98;2.50;;;;;;;;;;5000765;28;20078;-75
2022/11/21 10:57:45;;;;;;;16.10;2.38;;;;;;;;;;4969752;28;20047;-74
2022/11/21 11:00:16;;;;;;;17.67;2.05;;;;;;;;;;4965000;28;20046;-74
2022/11/21 11:03:04;;;;;;;17.13;2.78;;;;;;;;;;4971013;28;20475;-75
2022/11/21 11:05:32;;;;;;;8.07;2.13;;;;;;;;;;4970797;28;20487;-75
2022/11/21 11:08:03;;;;;;;10.38;2.35;;;;;;;;;;4968792;28;20470;-75
2022/11/21 11:10:29;;;;;;;10.80;3.13;;;;;;;;;;4970381;28;20039;-74
2022/11/21 11:15:52;;;;;;;21.98;2.20;;;;;;;;;;4969402;28;20050;-75
2022/11/21 11:18:20;;;;;;;19.95;2.00;;;;;;;;;;4993006;28;20046;-74
2022/11/21 11:20:46;;;;;;;16.17;1.52;;;;;;;;;;4970295;28;20038;-74
2022/11/21 11:23:15;;;;;;;17.20;2.13;;;;;;;;;;4971394;28;20046;-75
2022/11/21 11:25:49;;;;;;;14.57;1.88;;;;;;;;;;4962135;28;20113;-74
2022/11/21 11:28:15;;;;;;;12.48;2.05;;;;;;;;;;4970294;28;20050;-76
2022/11/21 11:30:40;;;;;;;24.10;2.40;;;;;;;;;;4969996;28;20030;-74
2022/11/21 11:33:42;;;;;;;11.80;2.33;;;;;;;;;;4969932;28;20042;-74
2022/11/21 11:36:14;;;;;;;20.15;2.40;;;;;;;;;;5001532;28;20058;-75
2022/11/21 11:38:51;;;;;;;7.72;1.45;;;;;;;;;;4959021;28;20454;-74
2022/11/21 11:41:24;;;;;;;20.08;2.10;;;;;;;;;;4973441;28;20097;-74
2022/11/21 11:50:10;;;;;;;14.10;2.03;;;;;;;;;;4968803;28;20408;-74
2022/11/21 11:52:24;;;;;;;16.30;1.65;;;;;;;;;;4995823;28;20046;-75
2022/11/21 11:54:55;;;;;;;11.63;1.98;;;;;;;;;;4967058;28;20035;-74
2022/11/21 11:57:21;;;;;;;26.17;2.53;;;;;;;;;;4969008;28;20399;-75
2022/11/21 11:59:51;;;;;;;15.70;1.83;;;;;;;;;;4969015;28;20041;-74
2022/11/21 12:02:28;;;;;;;19.58;2.33;;;;;;;;;;4966145;28;20049;-74
2022/11/21 12:05:12;;;;;;;12.88;2.08;;;;;;;;;;4986021;28;20041;-75
2022/11/21 12:07:43;;;;;;;11.48;1.83;;;;;;;;;;4972554;28;20066;-74
2022/11/21 12:12:05;;;;;;;10.07;1.92;;;;;;;;;;4972113;28;20049;-74
2022/11/21 12:13:22;;;;;;;12.02;2.47;;;;;;;;;;4975670;28;20130;-74
2022/11/21 12:15:51;;;;;;;13.05;1.48;;;;;;;;;;4982313;28;20134;-75
2022/11/21 12:18:19;;;;;;;20.88;2.05;;;;;;;;;;4973722;28;20114;-75
2022/11/21 12:20:58;;;;;;;11.63;2.10;;;;;;;;;;4973989;28;20045;-75
2022/11/21 12:23:30;;;;;;;3.05;1.23;;;;;;;;;;4973745;28;20039;-75
2022/11/21 12:26:19;;;;;;;15.30;2.10;;;;;;;;;;4972069;28;20045;-74
2022/11/21 12:29:11;;;;;;;14.20;1.90;;;;;;;;;;5002125;28;20053;-74
2022/11/21 12:31:40;;;;;;;14.50;1.90;;;;;;;;;;4962853;28;20072;-74
2022/11/21 12:34:36;;;;;;;9.32;1.60;;;;;;;;;;4976300;28;20046;-73
2022/11/21 12:37:29;;;;;;;8.68;1.50;;;;;;;;;;4973407;28;20045;-73
2022/11/21 12:40:19;;;;;;;5.00;1.27;;;;;;;;;;4969687;28;20043;-73
2022/11/21 12:42:58;;;;;;;20.48;2.30;;;;;;;;;;4969255;28;20093;-73
2022/11/21 12:45:36;;;;;;;10.00;1.92;;;;;;;;;;4971723;28;20450;-75
2022/11/21 12:54:39;;;;;;;13.15;1.83;;;;;;;;;;4971884;28;20101;-74
2022/11/21 12:57:10;;;;;;;10.93;1.67;;;;;;;;;;4972362;28;20042;-74
2022/11/21 12:59:54;;;;;;;7.40;1.30;;;;;;;;;;4972685;28;20039;-73
2022/11/21 13:02:25;;;;;;;13.07;1.13;;;;;;;;;;5005586;28;20046;-74
2022/11/21 13:04:54;;;;;;;6.00;1.15;;;;;;;;;;4979063;28;20030;-74
2022/11/21 13:07:19;;;;;;;8.77;1.17;;;;;;;;;;4971927;28;20039;-74
2022/11/21 13:09:47;;;;;;;12.95;1.23;;;;;;;;;;4972199;28;20046;-73
2022/11/21 13:12:20;;;;;;;13.10;1.40;;;;;;;;;;5004712;28;20042;-73
2022/11/21 13:14:52;;;;;;;10.88;1.25;;;;;;;;;;5000276;28;20398;-73
2022/11/21 13:17:25;;;;;;;7.75;1.35;;;;;;;;;;4975362;28;20045;-73
2022/11/21 13:19:53;;;;;;;2.73;0.70;;;;;;;;;;4972928;28;20070;-74
2022/11/21 13:22:34;;;;;;;8.48;1.52;;;;;;;;;;4973163;28;20049;-73
2022/11/21 13:25:03;;;;;;;4.88;0.90;;;;;;;;;;4965840;28;20376;-74
2022/11/21 13:27:33;;;;;;;10.00;1.50;;;;;;;;;;4980037;28;20085;-75
2022/11/21 13:30:08;;;;;;;6.63;1.42;;;;;;;;;;4973898;28;20046;-73
2022/11/21 13:32:38;;;;;;;3.47;0.93;;;;;;;;;;4982943;28;20071;-73
2022/11/21 13:35:18;;;;;;;8.20;1.10;;;;;;;;;;4971789;28;20035;-73
2022/11/21 13:38:11;;;;;;;11.45;1.20;;;;;;;;;;4966669;28;20035;-76
2022/11/21 13:40:38;;;;;;;10.50;1.33;;;;;;;;;;4966460;28;20047;-76
2022/11/21 13:43:18;;;;;;;8.05;1.30;;;;;;;;;;4969308;28;20062;-74
2022/11/21 13:45:47;;;;;;;16.35;1.42;;;;;;;;;;4972579;28;20034;-75
2022/11/21 13:48:35;;;;;;;8.55;1.10;;;;;;;;;;4932527;29;20431;-73
2022/11/21 13:51:29;;;;;;;8.35;0.90;;;;;;;;;;4931566;28;20403;-76
2022/11/21 13:54:16;;;;;;;6.30;1.30;;;;;;;;;;4931885;29;20130;-74
2022/11/21 13:57:06;;;;;;;6.20;1.27;;;;;;;;;;4936481;29;20038;-74
2022/11/21 13:59:58;;;;;;;5.93;1.00;;;;;;;;;;4931451;29;20865;-75
2022/11/21 14:02:32;;;;;;;6.90;0.85;;;;;;;;;;4931943;29;20054;-76
2022/11/21 14:05:16;;;;;;;;;;;;;;;;;;4932229;29;20048;-74
2022/11/21 14:07:42;;;;;;;3.83;1.02;;;;;;;;;;4934935;29;19922;-74
2022/11/21 14:10:24;;;;;;;7.22;1.10;;;;;;;;;;4932450;29;20066;-75
2022/11/21 14:12:50;;;;;;;2.88;0.80;;;;;;;;;;4936109;29;20211;-74
2022/11/21 14:15:21;;;;;;;2.38;0.90;;;;;;;;;;4932233;29;20042;-74
2022/11/21 14:17:49;;;;;;;9.35;4.10;;;;;;;;;;4943066;28;20074;-75
2022/11/21 14:20:22;;;;;;;3.45;1.23;;;;;;;;;;4930295;29;20032;-75
2022/11/21 14:23:04;;;;;;;2.45;1.42;;;;;;;;;;4934672;28;20040;-74
2022/11/21 14:25:38;;;;;;;7.00;2.05;;;;;;;;;;4934999;29;20094;-74
2022/11/21 14:28:07;;;;;;;7.60;1.50;;;;;;;;;;4932108;29;20047;-74
2022/11/21 14:30:38;;;;;;;15.63;2.00;;;;;;;;;;4932702;29;20043;-74
2022/11/21 14:33:22;;;;;;;9.45;3.03;;;;;;;;;;4935387;28;20083;-74
2022/11/21 14:35:50;;;;;;;5.63;1.88;;;;;;;;;;4940115;29;20043;-73
2022/11/21 14:38:15;;;;;;;9.55;1.30;;;;;;;;;;4930340;29;20066;-75
2022/11/21 14:40:41;;;;;;;7.95;1.40;;;;;;;;;;4941223;29;20067;-73
2022/11/21 14:43:45;;;;;;;2.20;0.77;;;;;;;;;;4932755;29;20045;-74
2022/11/21 14:46:15;;;;;;;1.83;0.60;;;;;;;;;;4988940;28;20054;-74
2022/11/21 14:48:41;;;;;;;1.17;0.40;;;;;;;;;;4970990;28;20300;-74
2022/11/21 14:51:08;;;;;;;1.10;0.40;;;;;;;;;;4969764;28;20137;-74
2022/11/21 14:53:34;;;;;;;0.55;0.45;;;;;;;;;;4982081;28;20443;-75
2022/11/21 14:55:59;;;;;;;0.30;0.30;;;;;;;;;;4958296;28;20038;-75
2022/11/21 14:58:25;;;;;;;0.95;0.40;;;;;;;;;;4951308;28;20051;-75
2022/11/21 15:01:17;;;;;;;0.63;0.40;;;;;;;;;;4982521;28;20480;-75
2022/11/21 15:04:00;;;;;;;0.45;0.30;;;;;;;;;;4945954;29;20498;-74
2022/11/21 15:06:26;;;;;;;0.95;0.45;;;;;;;;;;4952039;29;20047;-75
2022/11/21 15:08:55;;;;;;;3.17;0.38;;;;;;;;;;4957084;28;20078;-75
2022/11/21 15:11:51;;;;;;;0.28;0.28;;;;;;;;;;4953227;28;20043;-74
2022/11/21 15:14:37;;;;;;;0.50;0.30;;;;;;;;;;4950035;29;20054;-75
2022/11/21 15:17:06;;;;;;;0.95;0.38;;;;;;;;;;4951054;29;20054;-75